Time;durP1;ratioP1;P1;durP2;ratioP2;P2;SDS_P1;SDS_P2;PMS_P1;PMS_P2;Temp;Humidity;BMP_temperature;BMP_pressure;BME280_temperature;BME280_humidity;BME280_pressure;Samples;Min_cycle;Max_cycle;Signal;HPM_P1;HPM_P2
2019/12/25 00:01:14;;;;;;;8.9;2.3;;;;;;;7.74;73.81152;959.3817;;;;
2019/12/25 00:03:40;;;;;;;10;2.5;;;;;;;7.76;73.36035;959.4503;;;;
2019/12/25 00:06:05;;;;;;;9.1;2.4;;;;;;;7.77;73.30371;959.3965;;;;
2019/12/25 00:08:30;;;;;;;9.3;2.4;;;;;;;7.73;73.21484;959.3974;;;;
2019/12/25 00:10:55;;;;;;;7.4;2.3;;;;;;;7.74;72.93652;959.3926;;;;
2019/12/25 00:13:20;;;;;;;9;2.4;;;;;;;7.77;72.59375;959.4403;;;;
2019/12/25 00:15:47;;;;;;;7.1;2.2;;;;;;;7.78;72.74805;959.5264;;;;
2019/12/25 00:18:11;;;;;;;10.1;2.5;;;;;;;7.81;72.72754;959.4508;;;;
2019/12/25 00:20:36;;;;;;;8.8;2.3;;;;;;;7.84;72.76855;959.4138;;;;
2019/12/25 00:23:01;;;;;;;9.2;2.2;;;;;;;7.85;72.09473;959.361;;;;
2019/12/25 00:25:26;;;;;;;7.5;2.2;;;;;;;7.87;72.02637;959.3978;;;;
2019/12/25 00:27:51;;;;;;;9.6;2.5;;;;;;;7.88;72.18164;959.5034;;;;
2019/12/25 00:30:16;;;;;;;9.4;2.2;;;;;;;7.86;71.53711;959.4117;;;;
2019/12/25 00:32:42;;;;;;;9.3;2.3;;;;;;;7.93;71.71191;959.5151;;;;
2019/12/25 00:35:07;;;;;;;9.2;2.3;;;;;;;7.88;71.44629;959.4523;;;;
2019/12/25 00:37:32;;;;;;;9.2;2.4;;;;;;;7.92;71.31445;959.4567;;;;
2019/12/25 00:39:57;;;;;;;12.9;2.5;;;;;;;7.96;71.01855;959.5055;;;;
2019/12/25 00:42:23;;;;;;;8.7;2.3;;;;;;;7.96;70.81934;959.496;;;;
2019/12/25 00:44:48;;;;;;;10.5;2.4;;;;;;;8.01;70.62988;959.5313;;;;
2019/12/25 00:47:13;;;;;;;9.7;2.4;;;;;;;8.01;70.08203;959.5809;;;;
2019/12/25 00:49:38;;;;;;;8.8;2.6;;;;;;;8.05;70.54395;959.5314;;;;
2019/12/25 00:52:03;;;;;;;13.4;2.4;;;;;;;8.05;69.97266;959.6222;;;;
2019/12/25 00:54:28;;;;;;;11;2.7;;;;;;;8.06;70.26367;959.6543;;;;
2019/12/25 00:56:53;;;;;;;9.1;2.2;;;;;;;8.05;70.54395;959.6245;;;;
2019/12/25 00:59:19;;;;;;;10.7;2.5;;;;;;;8.02;70.5625;959.6856;;;;
2019/12/25 01:01:44;;;;;;;11;2.6;;;;;;;7.99;70.60352;959.6811;;;;
2019/12/25 01:04:09;;;;;;;10;2.5;;;;;;;7.93;70.83887;959.6923;;;;
2019/12/25 01:06:34;;;;;;;8.8;2.4;;;;;;;7.9;70.77539;959.7737;;;;
2019/12/25 01:08:59;;;;;;;7.7;2.3;;;;;;;8.04;70.87988;959.8391;;;;
2019/12/25 01:11:24;;;;;;;10.1;2.3;;;;;;;7.99;71.03418;959.7547;;;;
2019/12/25 01:13:49;;;;;;;10.1;2.4;;;;;;;8.04;70.79883;959.7598;;;;
2019/12/25 01:16:15;;;;;;;10;2.5;;;;;;;8.01;70.96777;959.7598;;;;
2019/12/25 01:18:40;;;;;;;10;2.4;;;;;;;8.02;71.16699;959.7676;;;;
2019/12/25 01:21:05;;;;;;;7.5;2.3;;;;;;;7.93;71.10547;959.7491;;;;
2019/12/25 01:23:30;;;;;;;10.6;2.7;;;;;;;7.87;71.52832;959.6169;;;;
2019/12/25 01:25:55;;;;;;;9.7;2.4;;;;;;;7.89;71.44824;959.758;;;;
2019/12/25 01:28:20;;;;;;;8.5;2.3;;;;;;;7.92;71.35938;959.7333;;;;
2019/12/25 01:30:45;;;;;;;9;2.4;;;;;;;7.87;71.62109;959.68;;;;
2019/12/25 01:33:11;;;;;;;9.7;2.7;;;;;;;7.73;71.75977;959.6303;;;;
2019/12/25 01:35:36;;;;;;;9.9;2.7;;;;;;;7.78;71.75684;959.7258;;;;
2019/12/25 01:38:01;;;;;;;7.4;2.2;;;;;;;7.78;71.55859;959.7236;;;;
2019/12/25 01:40:26;;;;;;;9.4;2.3;;;;;;;7.73;72.03906;959.7291;;;;
2019/12/25 01:42:51;;;;;;;10.3;2.5;;;;;;;7.75;72.14844;959.685;;;;
2019/12/25 01:45:16;;;;;;;9.4;2.6;;;;;;;7.75;72.10156;959.6989;;;;
2019/12/25 01:47:41;;;;;;;12.4;2.8;;;;;;;7.75;71.8457;959.6782;;;;
2019/12/25 01:50:06;;;;;;;11.4;2.7;;;;;;;7.78;71.89648;959.6506;;;;
2019/12/25 01:52:32;;;;;;;10.5;2.6;;;;;;;7.81;71.83105;959.6934;;;;
2019/12/25 01:54:57;;;;;;;11;2.7;;;;;;;7.85;71.89453;959.7198;;;;
2019/12/25 01:57:22;;;;;;;11.3;2.5;;;;;;;7.79;71.9209;959.7537;;;;
2019/12/25 01:59:47;;;;;;;9.3;2.4;;;;;;;7.83;72.00977;959.7747;;;;
2019/12/25 02:02:13;;;;;;;11.3;2.7;;;;;;;7.84;71.83691;959.8464;;;;
2019/12/25 02:04:38;;;;;;;11.3;2.4;;;;;;;7.85;71.76855;959.8387;;;;
2019/12/25 02:07:03;;;;;;;10.7;2.5;;;;;;;7.84;71.55566;959.9138;;;;
2019/12/25 02:09:28;;;;;;;8.3;2.3;;;;;;;7.9;71.78711;959.8873;;;;
2019/12/25 02:11:53;;;;;;;10.4;2.6;;;;;;;7.82;71.97168;959.9113;;;;
2019/12/25 02:14:19;;;;;;;13.4;2.5;;;;;;;7.86;71.93262;959.855;;;;
2019/12/25 02:16:44;;;;;;;8.6;2.4;;;;;;;7.87;71.62988;959.9355;;;;
2019/12/25 02:19:09;;;;;;;11.5;2.6;;;;;;;7.97;71.73047;959.8846;;;;
2019/12/25 02:21:34;;;;;;;12.5;2.6;;;;;;;8;71.82813;959.8127;;;;
2019/12/25 02:23:59;;;;;;;10.2;2.5;;;;;;;7.92;71.98828;959.803;;;;
2019/12/25 02:26:24;;;;;;;10.9;2.5;;;;;;;7.87;72.73926;959.7464;;;;
2019/12/25 02:28:50;;;;;;;11.3;2.4;;;;;;;7.93;73.04004;959.7781;;;;
2019/12/25 02:31:15;;;;;;;11.5;2.7;;;;;;;7.95;73.33398;959.8513;;;;
2019/12/25 02:33:40;;;;;;;11.2;2.2;;;;;;;7.94;73.27441;959.7773;;;;
2019/12/25 02:36:05;;;;;;;12.8;2.5;;;;;;;7.91;73.43262;959.7798;;;;
2019/12/25 02:38:30;;;;;;;11.9;2.8;;;;;;;7.85;73.65527;959.807;;;;
2019/12/25 02:40:55;;;;;;;9.5;2.4;;;;;;;7.91;73.11816;959.8606;;;;
2019/12/25 02:43:21;;;;;;;11.8;2.3;;;;;;;7.87;73.81934;959.8448;;;;
2019/12/25 02:45:46;;;;;;;9.1;2.4;;;;;;;7.87;74.01953;959.7344;;;;
2019/12/25 02:48:11;;;;;;;9.9;2.4;;;;;;;7.8;74.46094;959.7633;;;;
2019/12/25 02:50:36;;;;;;;13.6;2.4;;;;;;;7.78;75.12207;959.8674;;;;
2019/12/25 02:53:01;;;;;;;7.7;2.1;;;;;;;7.75;75.33887;959.7684;;;;
2019/12/25 02:55:26;;;;;;;8.3;2;;;;;;;7.72;74.85547;959.7474;;;;
2019/12/25 02:57:52;;;;;;;11.5;2.2;;;;;;;7.81;74.59082;959.6825;;;;
2019/12/25 03:00:17;;;;;;;9.2;2.2;;;;;;;7.86;74.4834;959.7242;;;;
2019/12/25 03:02:42;;;;;;;7.1;2;;;;;;;7.73;74.63574;959.7414;;;;
2019/12/25 03:05:07;;;;;;;7.5;2.1;;;;;;;7.74;75.17285;959.7742;;;;
2019/12/25 03:07:32;;;;;;;10.9;2.1;;;;;;;7.72;75.83301;959.7766;;;;
2019/12/25 03:09:57;;;;;;;8.4;2;;;;;;;7.73;76.14941;959.7366;;;;
2019/12/25 03:12:23;;;;;;;8.4;2.1;;;;;;;7.69;76.65527;959.7625;;;;
2019/12/25 03:14:48;;;;;;;11.1;2.4;;;;;;;7.67;77.81445;959.7707;;;;
2019/12/25 03:17:13;;;;;;;7.5;1.8;;;;;;;7.69;77.84277;959.7371;;;;
2019/12/25 03:19:38;;;;;;;8.1;1.8;;;;;;;7.53;78.61523;959.753;;;;
2019/12/25 03:22:03;;;;;;;8.9;2.2;;;;;;;7.53;79.47656;959.759;;;;
2019/12/25 03:24:28;;;;;;;9.3;2.2;;;;;;;7.54;79.24512;959.7537;;;;
2019/12/25 03:26:54;;;;;;;10.2;2.1;;;;;;;7.51;79.56836;959.7612;;;;
2019/12/25 03:29:19;;;;;;;9.3;1.9;;;;;;;7.51;79.37012;959.7466;;;;
2019/12/25 03:31:44;;;;;;;10.6;2;;;;;;;7.43;80.15723;959.7234;;;;
2019/12/25 03:34:09;;;;;;;11.1;2;;;;;;;7.47;80.43262;959.7148;;;;
2019/12/25 03:36:34;;;;;;;11.3;1.9;;;;;;;7.55;80.15625;959.5489;;;;
2019/12/25 03:38:59;;;;;;;9.3;2.1;;;;;;;7.46;80.18652;959.562;;;;
2019/12/25 03:41:25;;;;;;;10.3;2;;;;;;;7.42;80.55078;959.5397;;;;
2019/12/25 03:43:50;;;;;;;9.8;2.1;;;;;;;7.36;81.0166;959.5165;;;;
2019/12/25 03:46:15;;;;;;;10.2;2.1;;;;;;;7.42;80.8418;959.4854;;;;
2019/12/25 03:48:40;;;;;;;8.5;1.9;;;;;;;7.38;80.75195;959.4272;;;;
2019/12/25 03:51:05;;;;;;;10.6;2.4;;;;;;;7.36;80.7041;959.5092;;;;
2019/12/25 03:53:30;;;;;;;8.1;2.1;;;;;;;7.41;80.80371;959.5014;;;;
2019/12/25 03:55:56;;;;;;;9.8;1.7;;;;;;;7.42;79.91113;959.4814;;;;
2019/12/25 03:58:21;;;;;;;9;1.9;;;;;;;7.42;80.27148;959.4345;;;;
2019/12/25 04:02:26;;;;;;;8.4;1.8;;;;;;;7.4;80.16309;959.4344;;;;
2019/12/25 04:04:51;;;;;;;9;2;;;;;;;7.43;80.44629;959.5214;;;;
2019/12/25 04:07:16;;;;;;;9;2.1;;;;;;;7.45;79.99707;959.4559;;;;
2019/12/25 04:09:42;;;;;;;9.8;2.1;;;;;;;7.49;80.12207;959.5225;;;;
2019/12/25 04:12:07;;;;;;;9.3;2;;;;;;;7.47;79.90918;959.498;;;;
2019/12/25 04:14:32;;;;;;;7;2;;;;;;;7.42;80.01563;959.5137;;;;
2019/12/25 04:16:57;;;;;;;9.6;2.2;;;;;;;7.43;79.64453;959.4655;;;;
2019/12/25 04:19:22;;;;;;;9.8;2.2;;;;;;;7.36;79.73828;959.5438;;;;
2019/12/25 04:21:47;;;;;;;9;1.9;;;;;;;7.46;79.86035;959.5539;;;;
2019/12/25 04:24:12;;;;;;;10.5;2;;;;;;;7.48;78.74707;959.5817;;;;
2019/12/25 04:26:37;;;;;;;9.7;2;;;;;;;7.48;78.93164;959.4881;;;;
2019/12/25 04:29:02;;;;;;;9.2;2;;;;;;;7.56;79.12207;959.5669;;;;
2019/12/25 04:31:27;;;;;;;9.1;1.7;;;;;;;7.62;79.00391;959.6971;;;;
2019/12/25 04:33:52;;;;;;;9.9;2.2;;;;;;;7.6;78.82813;959.6672;;;;
2019/12/25 04:36:18;;;;;;;8.4;2;;;;;;;7.67;78.81543;959.6234;;;;
2019/12/25 04:38:43;;;;;;;8.2;1.7;;;;;;;7.62;78.56152;959.6501;;;;
2019/12/25 04:41:08;;;;;;;6.7;1.7;;;;;;;7.69;77.93555;959.6052;;;;
2019/12/25 04:43:33;;;;;;;8.2;1.7;;;;;;;7.65;77.41699;959.5775;;;;
2019/12/25 04:45:58;;;;;;;7.9;1.8;;;;;;;7.75;77.71387;959.501;;;;
2019/12/25 04:48:23;;;;;;;8.7;1.9;;;;;;;7.7;77.82129;959.5059;;;;
2019/12/25 04:50:48;;;;;;;7;1.9;;;;;;;7.69;77.36523;959.4604;;;;
2019/12/25 04:53:13;;;;;;;8.2;1.9;;;;;;;7.68;77.44531;959.4849;;;;
2019/12/25 04:55:38;;;;;;;6.4;1.6;;;;;;;7.77;77.55371;959.6742;;;;
2019/12/25 04:58:03;;;;;;;7.3;1.8;;;;;;;7.73;77.70898;959.6805;;;;
2019/12/25 05:00:28;;;;;;;7.3;1.7;;;;;;;7.65;78.24219;959.6247;;;;
2019/12/25 05:02:53;;;;;;;7.5;1.7;;;;;;;7.72;77.83594;959.6169;;;;
2019/12/25 05:05:19;;;;;;;8.1;1.8;;;;;;;7.7;77.6582;959.7977;;;;
2019/12/25 05:07:44;;;;;;;6.8;1.8;;;;;;;7.72;77.66113;959.6882;;;;
2019/12/25 05:10:09;;;;;;;9.2;1.6;;;;;;;7.71;77.27637;959.6272;;;;
2019/12/25 05:12:34;;;;;;;8.1;1.7;;;;;;;7.66;77.81445;959.6287;;;;
2019/12/25 05:14:59;;;;;;;7.1;1.9;;;;;;;7.67;77.7334;959.5602;;;;
2019/12/25 05:17:24;;;;;;;9.4;2.1;;;;;;;7.66;77.75586;959.5463;;;;
2019/12/25 05:19:49;;;;;;;6.7;1.7;;;;;;;7.62;77.78125;959.5206;;;;
2019/12/25 05:22:14;;;;;;;6.8;1.7;;;;;;;7.71;77.53125;959.5999;;;;
2019/12/25 05:24:39;;;;;;;7.4;1.8;;;;;;;7.72;77.31152;959.5517;;;;
2019/12/25 05:27:04;;;;;;;6.1;1.8;;;;;;;7.7;77.71582;959.5872;;;;
2019/12/25 05:29:29;;;;;;;7.4;1.8;;;;;;;7.68;77.53809;959.6122;;;;
2019/12/25 05:31:54;;;;;;;6.7;1.8;;;;;;;7.72;77.46289;959.6166;;;;
2019/12/25 05:34:19;;;;;;;7.2;1.7;;;;;;;7.68;77.81641;959.6415;;;;
2019/12/25 05:36:45;;;;;;;8.5;1.7;;;;;;;7.71;77.49609;959.6541;;;;
2019/12/25 05:39:10;;;;;;;8.2;1.8;;;;;;;7.74;77.52441;959.7328;;;;
2019/12/25 05:41:35;;;;;;;6.4;1.7;;;;;;;7.71;77.74121;959.7255;;;;
2019/12/25 05:44:00;;;;;;;9.1;2.2;;;;;;;7.81;77.47852;959.755;;;;
2019/12/25 05:46:25;;;;;;;6.7;1.7;;;;;;;7.8;77.25781;959.7581;;;;
2019/12/25 05:48:50;;;;;;;6;1.9;;;;;;;7.78;77.4043;959.801;;;;
2019/12/25 05:51:15;;;;;;;7.9;1.9;;;;;;;7.77;77.44922;959.8756;;;;
2019/12/25 05:53:40;;;;;;;9.5;2;;;;;;;7.82;77.62207;959.8725;;;;
2019/12/25 05:56:05;;;;;;;5.5;1.7;;;;;;;7.78;78.08008;959.8304;;;;
2019/12/25 05:58:30;;;;;;;6.5;1.9;;;;;;;7.79;78.26758;959.8697;;;;
2019/12/25 06:00:55;;;;;;;9.9;2.3;;;;;;;7.77;78.14844;959.816;;;;
2019/12/25 06:03:20;;;;;;;8.2;1.8;;;;;;;7.83;78.15918;959.8616;;;;
2019/12/25 06:05:45;;;;;;;6.3;1.6;;;;;;;7.72;78.08008;959.8714;;;;
2019/12/25 06:08:10;;;;;;;8.5;1.6;;;;;;;7.74;78.02637;959.8675;;;;
2019/12/25 06:10:39;;;;;;;5;1.5;;;;;;;7.75;78.17969;959.923;;;;
2019/12/25 06:13:00;;;;;;;6.4;1.8;;;;;;;7.84;77.81152;959.8973;;;;
2019/12/25 06:15:26;;;;;;;5.7;1.6;;;;;;;7.86;77.65137;959.8895;;;;
2019/12/25 06:17:51;;;;;;;6.6;1.8;;;;;;;7.84;77.75293;959.7045;;;;
2019/12/25 06:21:10;;;;;;;8.1;1.7;;;;;;;7.83;77.7168;959.6873;;;;
2019/12/25 06:23:35;;;;;;;8;1.7;;;;;;;7.81;78.3291;959.7449;;;;
2019/12/25 06:26:00;;;;;;;5.2;1.6;;;;;;;7.82;78.44727;959.748;;;;
2019/12/25 06:28:25;;;;;;;5.6;1.6;;;;;;;7.86;78.05957;959.7745;;;;
2019/12/25 06:30:50;;;;;;;8;1.9;;;;;;;7.85;78.59473;959.8287;;;;
2019/12/25 06:33:16;;;;;;;7.4;1.8;;;;;;;7.88;78.66992;959.8495;;;;
2019/12/25 06:35:41;;;;;;;5.7;1.6;;;;;;;7.92;78.7793;959.8183;;;;
2019/12/25 06:38:06;;;;;;;8.6;1.6;;;;;;;7.89;78.91406;959.973;;;;
2019/12/25 06:40:31;;;;;;;7.9;1.7;;;;;;;7.87;78.9248;959.8679;;;;
2019/12/25 06:42:56;;;;;;;6.4;1.7;;;;;;;7.91;79.02246;959.9023;;;;
2019/12/25 06:45:21;;;;;;;5.4;1.7;;;;;;;7.88;78.85449;959.9058;;;;
2019/12/25 06:47:46;;;;;;;7.1;1.5;;;;;;;7.9;79.24219;959.876;;;;
2019/12/25 06:50:11;;;;;;;5.7;1.6;;;;;;;7.88;79.04102;959.8329;;;;
2019/12/25 06:52:36;;;;;;;8.5;1.6;;;;;;;7.91;78.97754;959.843;;;;
2019/12/25 06:55:01;;;;;;;6.1;1.6;;;;;;;7.92;78.97754;959.8192;;;;
2019/12/25 06:57:26;;;;;;;5.6;1.4;;;;;;;7.98;78.56934;959.7885;;;;
2019/12/25 06:59:51;;;;;;;6.3;1.6;;;;;;;8.02;78.49707;959.8801;;;;
2019/12/25 07:02:16;;;;;;;4.9;1.6;;;;;;;8.01;78.37598;959.818;;;;
2019/12/25 07:04:41;;;;;;;6.9;1.7;;;;;;;7.96;78.32129;959.8653;;;;
2019/12/25 07:07:07;;;;;;;5;1.5;;;;;;;8;78.29492;959.7963;;;;
2019/12/25 07:09:32;;;;;;;6.1;1.5;;;;;;;8.06;78.10645;959.9297;;;;
2019/12/25 07:11:57;;;;;;;6.3;1.6;;;;;;;7.99;78.47949;959.9743;;;;
2019/12/25 07:14:22;;;;;;;5.3;1.4;;;;;;;8;78.43457;959.8853;;;;
2019/12/25 07:16:47;;;;;;;7.7;2;;;;;;;8.05;78.73535;959.9763;;;;
2019/12/25 07:19:12;;;;;;;5.9;1.5;;;;;;;8.04;78.74512;959.9461;;;;
2019/12/25 07:21:37;;;;;;;6.9;1.6;;;;;;;8.12;78.66504;959.8572;;;;
2019/12/25 07:24:02;;;;;;;6.7;1.7;;;;;;;8.08;78.92676;959.8895;;;;
2019/12/25 07:26:27;;;;;;;8.4;2.1;;;;;;;8.04;78.91895;960.016;;;;
2019/12/25 07:28:52;;;;;;;8.5;1.7;;;;;;;8.11;78.97754;960.0531;;;;
2019/12/25 07:31:17;;;;;;;10.2;1.9;;;;;;;8.16;79.43066;960.1147;;;;
2019/12/25 07:33:43;;;;;;;7.4;1.9;;;;;;;8.14;79.98633;960.1245;;;;
2019/12/25 07:36:08;;;;;;;6.8;1.8;;;;;;;8.1;80.47949;960.2028;;;;
2019/12/25 07:38:33;;;;;;;7.5;1.9;;;;;;;8.05;80.6582;960.0022;;;;
2019/12/25 07:40:58;;;;;;;9.1;2;;;;;;;7.99;80.86816;960.0229;;;;
2019/12/25 07:43:23;;;;;;;7.1;2;;;;;;;8;81.0791;959.9258;;;;
2019/12/25 07:45:48;;;;;;;10.7;2;;;;;;;7.96;81.75781;959.8897;;;;
2019/12/25 07:48:13;;;;;;;8.3;1.9;;;;;;;7.94;81.88281;959.9666;;;;
2019/12/25 07:50:38;;;;;;;12.1;2.2;;;;;;;8.05;81.41504;959.9793;;;;
2019/12/25 07:53:03;;;;;;;10.8;2.5;;;;;;;8.16;81.41211;960.0287;;;;
2019/12/25 07:55:28;;;;;;;12.2;2.6;;;;;;;8.1;81.22754;960.0605;;;;
2019/12/25 07:57:53;;;;;;;10;2.2;;;;;;;8.12;81.08887;960.0607;;;;
2019/12/25 08:00:19;;;;;;;10;2.5;;;;;;;8.17;81.2168;960.0643;;;;
2019/12/25 08:02:43;;;;;;;11.7;2.4;;;;;;;8.17;81.08691;960.0889;;;;
2019/12/25 08:05:09;;;;;;;10.3;2.1;;;;;;;8.14;81.0459;960.0253;;;;
2019/12/25 08:07:34;;;;;;;9.1;2.7;;;;;;;8.17;80.88965;960.0549;;;;
2019/12/25 08:09:59;;;;;;;11.2;2.7;;;;;;;8.17;81.11035;960.0726;;;;
2019/12/25 08:12:24;;;;;;;10.7;2.8;;;;;;;8.3;80.43555;960.0991;;;;
2019/12/25 08:14:49;;;;;;;10.3;2.4;;;;;;;8.3;80.58789;960.1479;;;;
2019/12/25 08:17:14;;;;;;;11.6;2.6;;;;;;;8.28;80.13965;960.1267;;;;
2019/12/25 08:19:39;;;;;;;11;2.5;;;;;;;8.22;80.26953;960.111;;;;
2019/12/25 08:22:04;;;;;;;7.2;2.2;;;;;;;8.29;80.0127;960.2653;;;;
2019/12/25 08:24:29;;;;;;;7.9;2.2;;;;;;;8.28;79.7334;960.1647;;;;
2019/12/25 08:26:54;;;;;;;10.2;2.5;;;;;;;8.36;79.6416;960.2032;;;;
2019/12/25 08:29:19;;;;;;;8.5;2.4;;;;;;;8.32;79.40332;960.2809;;;;
2019/12/25 08:31:45;;;;;;;6.6;1.8;;;;;;;8.36;79.60742;960.1641;;;;
2019/12/25 08:34:10;;;;;;;7.6;2.4;;;;;;;8.49;78.76953;960.2406;;;;
2019/12/25 08:36:35;;;;;;;9.5;2.2;;;;;;;8.48;78.9873;960.2486;;;;
2019/12/25 08:39:01;;;;;;;10.2;2.7;;;;;;;8.51;79.56348;960.2881;;;;
2019/12/25 08:41:26;;;;;;;8.9;2.3;;;;;;;8.52;79.53223;960.2905;;;;
2019/12/25 08:43:51;;;;;;;10;2.2;;;;;;;8.54;79.4541;960.3323;;;;
2019/12/25 08:46:16;;;;;;;8.7;2.2;;;;;;;8.5;79.17871;960.3766;;;;
2019/12/25 08:48:41;;;;;;;13.3;2.6;;;;;;;8.48;79.71191;960.3141;;;;
2019/12/25 08:51:06;;;;;;;12.6;2.4;;;;;;;8.44;79.77441;960.3261;;;;
2019/12/25 08:53:32;;;;;;;11.3;2.3;;;;;;;8.45;80.4873;960.2748;;;;
2019/12/25 08:55:57;;;;;;;7.9;2.1;;;;;;;8.42;80.61035;960.2455;;;;
2019/12/25 08:58:22;;;;;;;8;2;;;;;;;8.52;80.60547;960.1692;;;;
2019/12/25 09:00:47;;;;;;;9.8;2.3;;;;;;;8.53;80.6416;960.3036;;;;
2019/12/25 09:03:12;;;;;;;10.3;2.3;;;;;;;8.53;79.96582;960.2326;;;;
2019/12/25 09:05:37;;;;;;;8.6;2.2;;;;;;;8.56;80.12207;960.2874;;;;
2019/12/25 09:08:02;;;;;;;7.8;2;;;;;;;8.53;80.85156;960.3484;;;;
2019/12/25 09:10:27;;;;;;;12.2;2.6;;;;;;;8.55;79.92188;960.395;;;;
2019/12/25 09:12:52;;;;;;;8.9;2.2;;;;;;;8.58;79.85742;960.367;;;;
2019/12/25 09:15:34;;;;;;;8.3;2.2;;;;;;;8.64;79.35449;960.2971;;;;
2019/12/25 09:17:43;;;;;;;7.1;2;;;;;;;8.72;78.31934;960.3318;;;;
2019/12/25 09:20:08;;;;;;;9;2.1;;;;;;;8.72;78.71777;960.3381;;;;
2019/12/25 09:22:33;;;;;;;7.1;2;;;;;;;8.72;78.71582;960.4534;;;;
2019/12/25 09:24:58;;;;;;;8.6;2.1;;;;;;;8.7;78.5498;960.4244;;;;
2019/12/25 09:27:23;;;;;;;9.4;2.2;;;;;;;8.69;78.79297;960.4292;;;;
2019/12/25 09:29:48;;;;;;;9.8;2.3;;;;;;;8.63;78.49121;960.4514;;;;
2019/12/25 09:32:13;;;;;;;9;1.8;;;;;;;8.65;78.62305;960.4152;;;;
2019/12/25 09:34:38;;;;;;;6.9;1.9;;;;;;;8.65;78.49512;960.4125;;;;
2019/12/25 09:37:04;;;;;;;8.6;2.1;;;;;;;8.69;79.0498;960.4515;;;;
2019/12/25 09:39:29;;;;;;;8.5;1.8;;;;;;;8.62;78.95703;960.23;;;;
2019/12/25 09:41:54;;;;;;;7.8;1.9;;;;;;;8.66;78.7998;960.1877;;;;
2019/12/25 09:44:20;;;;;;;7.3;1.8;;;;;;;8.76;78.60938;960.2991;;;;
2019/12/25 09:46:45;;;;;;;6.3;1.7;;;;;;;9.16;77.75684;960.4359;;;;
2019/12/25 09:49:10;;;;;;;8.7;3;;;;;;;9.22;77.5127;960.3458;;;;
2019/12/25 09:51:35;;;;;;;7.6;2;;;;;;;9.02;78.20996;960.2941;;;;
2019/12/25 09:54:00;;;;;;;8.2;2;;;;;;;8.95;78.99316;960.4263;;;;
2019/12/25 09:56:25;;;;;;;7.9;1.7;;;;;;;8.92;79.25488;960.4973;;;;
2019/12/25 09:58:50;;;;;;;9.7;2;;;;;;;8.82;78.94531;960.4026;;;;
2019/12/25 10:01:15;;;;;;;7.7;1.9;;;;;;;8.71;78.9375;960.3142;;;;
2019/12/25 10:03:40;;;;;;;7.2;1.9;;;;;;;9.02;78.58398;960.4265;;;;
2019/12/25 10:06:06;;;;;;;6.4;1.8;;;;;;;8.93;78.45313;960.5198;;;;
2019/12/25 10:08:31;;;;;;;7.6;1.8;;;;;;;8.94;78.32422;960.3649;;;;
2019/12/25 10:10:56;;;;;;;6.7;1.7;;;;;;;8.95;78.54883;960.3315;;;;
2019/12/25 10:13:21;;;;;;;6.7;1.7;;;;;;;9;77.64648;960.3741;;;;
2019/12/25 10:15:46;;;;;;;5.4;1.6;;;;;;;8.95;77.89551;960.3727;;;;
2019/12/25 10:18:11;;;;;;;5.3;1.5;;;;;;;9;77.39063;960.3436;;;;
2019/12/25 10:20:37;;;;;;;5.6;1.5;;;;;;;9;76.86426;960.3644;;;;
2019/12/25 10:23:02;;;;;;;5.7;1.3;;;;;;;8.99;77.54004;960.3412;;;;
2019/12/25 10:25:27;;;;;;;3.7;1.4;;;;;;;8.92;76.97852;960.2533;;;;
2019/12/25 10:27:52;;;;;;;7.3;1.7;;;;;;;8.81;77.84863;960.1845;;;;
2019/12/25 10:30:17;;;;;;;7;2.8;;;;;;;8.8;78.19336;960.2612;;;;
2019/12/25 10:32:42;;;;;;;4.8;1.5;;;;;;;8.7;78.84277;960.197;;;;
2019/12/25 10:35:08;;;;;;;5.7;1.6;;;;;;;8.72;79.56836;960.4188;;;;
2019/12/25 10:37:33;;;;;;;6.3;1.5;;;;;;;8.63;80.39355;960.5148;;;;
2019/12/25 10:39:58;;;;;;;8.1;1.8;;;;;;;8.6;81.08887;960.5337;;;;
2019/12/25 10:42:23;;;;;;;4.5;1.6;;;;;;;8.65;80.88672;960.5417;;;;
2019/12/25 10:44:48;;;;;;;7;1.9;;;;;;;8.58;81.45508;960.5804;;;;
2019/12/25 10:47:13;;;;;;;6.8;1.7;;;;;;;8.6;81.82324;960.5327;;;;
2019/12/25 10:49:39;;;;;;;6.1;1.4;;;;;;;8.65;81.87891;960.6431;;;;
2019/12/25 10:52:04;;;;;;;8.1;2;;;;;;;8.46;82.41504;960.6862;;;;
2019/12/25 10:54:29;;;;;;;6.6;1.8;;;;;;;8.48;82.62695;960.6912;;;;
2019/12/25 10:56:54;;;;;;;5.7;1.6;;;;;;;8.44;83.08691;960.8183;;;;
2019/12/25 10:59:19;;;;;;;7.8;1.8;;;;;;;8.41;83.69922;960.8583;;;;
2019/12/25 11:01:45;;;;;;;8.8;2.3;;;;;;;8.49;83.83105;960.7513;;;;
2019/12/25 11:04:10;;;;;;;6.8;1.8;;;;;;;8.42;84.03906;960.7885;;;;
2019/12/25 11:06:35;;;;;;;8.8;2.2;;;;;;;8.31;85.2627;961.0974;;;;
2019/12/25 11:09:00;;;;;;;5.3;1.8;;;;;;;8.28;83.5459;961.0011;;;;
2019/12/25 11:11:25;;;;;;;6.3;1.7;;;;;;;8.28;82.80957;961.109;;;;
2019/12/25 11:13:50;;;;;;;5.6;1.6;;;;;;;8.28;82.33105;961.2873;;;;
2019/12/25 11:16:15;;;;;;;3.9;1.2;;;;;;;8.2;81.4541;961.0691;;;;
2019/12/25 11:18:41;;;;;;;2.7;1;;;;;;;8.01;80.3584;961.1627;;;;
2019/12/25 11:21:06;;;;;;;2.5;0.8;;;;;;;7.96;81.66504;961.3347;;;;
2019/12/25 11:23:31;;;;;;;3.2;1.1;;;;;;;7.92;81.42383;961.3451;;;;
2019/12/25 11:25:56;;;;;;;2.1;1;;;;;;;7.81;80.11133;961.4072;;;;
2019/12/25 11:28:21;;;;;;;3.1;1;;;;;;;7.7;81.26563;961.3674;;;;
2019/12/25 11:30:46;;;;;;;2.9;1;;;;;;;7.75;81.69629;961.4089;;;;
2019/12/25 11:33:12;;;;;;;1.8;0.9;;;;;;;7.63;80.34375;961.5327;;;;
2019/12/25 11:35:37;;;;;;;3.1;1.3;;;;;;;7.48;80.81836;961.6188;;;;
2019/12/25 11:38:02;;;;;;;2.3;1.2;;;;;;;7.43;80.1123;961.6777;;;;
2019/12/25 11:40:27;;;;;;;1.6;0.9;;;;;;;7.3;79.24805;961.6786;;;;
2019/12/25 11:42:52;;;;;;;10.3;7.6;;;;;;;7.16;80.66406;961.6386;;;;
2019/12/25 11:45:17;;;;;;;1.9;1;;;;;;;7.06;80.82031;961.6841;;;;
2019/12/25 11:47:42;;;;;;;1.5;1;;;;;;;7.21;80.89648;961.6887;;;;
2019/12/25 11:50:07;;;;;;;2.7;0.8;;;;;;;7.08;81.01074;961.7268;;;;
2019/12/25 11:52:32;;;;;;;1.8;0.7;;;;;;;7.1;80.77051;961.6884;;;;
2019/12/25 11:54:58;;;;;;;1.2;0.7;;;;;;;7.18;80.61035;961.6193;;;;
2019/12/25 11:57:23;;;;;;;2.8;0.8;;;;;;;7.02;80.7998;961.7272;;;;
2019/12/25 11:59:48;;;;;;;1.2;0.7;;;;;;;7.01;81.75195;961.793;;;;
2019/12/25 12:02:13;;;;;;;1;0.8;;;;;;;6.98;81.07227;961.7517;;;;
2019/12/25 12:04:38;;;;;;;0.8;0.7;;;;;;;6.81;81.71484;961.6741;;;;
2019/12/25 12:07:04;;;;;;;2.1;0.9;;;;;;;6.85;81.91895;961.7385;;;;
2019/12/25 12:09:29;;;;;;;1.8;0.9;;;;;;;6.73;82.28027;961.6936;;;;
2019/12/25 12:11:54;;;;;;;1.3;0.8;;;;;;;6.74;82.45703;961.7917;;;;
2019/12/25 12:14:19;;;;;;;2.2;0.8;;;;;;;6.84;81.70801;961.6911;;;;
2019/12/25 12:16:44;;;;;;;1.6;0.9;;;;;;;6.81;81.92383;961.7559;;;;
2019/12/25 12:19:09;;;;;;;2.3;0.9;;;;;;;6.88;81.80957;961.6713;;;;
2019/12/25 12:21:34;;;;;;;1.2;0.8;;;;;;;6.89;81.49902;961.6666;;;;
2019/12/25 12:25:29;;;;;;;1.6;0.8;;;;;;;6.87;81.24805;961.7208;;;;
2019/12/25 12:27:54;;;;;;;1.2;0.9;;;;;;;6.91;80.94336;961.7407;;;;
2019/12/25 12:30:20;;;;;;;2.4;1;;;;;;;6.89;81.76465;961.8373;;;;
2019/12/25 12:32:45;;;;;;;1.8;1.1;;;;;;;6.84;81.77832;961.7972;;;;
2019/12/25 12:35:10;;;;;;;1.2;0.9;;;;;;;6.89;81.34668;961.7639;;;;
2019/12/25 12:37:35;;;;;;;1.8;1.3;;;;;;;7;81.50781;961.7861;;;;
2019/12/25 12:40:00;;;;;;;1.7;1;;;;;;;7.15;80.68555;961.8792;;;;
2019/12/25 12:42:25;;;;;;;1.9;1.1;;;;;;;7.06;80.50586;961.9975;;;;
2019/12/25 12:44:50;;;;;;;1.7;1;;;;;;;7.01;80.68359;962.0549;;;;
2019/12/25 12:47:15;;;;;;;1.2;1;;;;;;;7.05;81.18848;962.1519;;;;
2019/12/25 12:49:40;;;;;;;1.8;1.2;;;;;;;7.02;81.02246;962.2967;;;;
2019/12/25 12:52:05;;;;;;;2.1;1.3;;;;;;;7.17;81.20215;962.2795;;;;
2019/12/25 12:54:30;;;;;;;2.5;1.3;;;;;;;7.23;80.79492;962.3156;;;;
2019/12/25 12:56:55;;;;;;;2.4;1.4;;;;;;;7.15;80.2666;962.3178;;;;
2019/12/25 12:59:20;;;;;;;2.9;1.4;;;;;;;7.09;80.59277;962.3484;;;;
2019/12/25 13:01:46;;;;;;;2;1.2;;;;;;;7.08;80.70898;962.3399;;;;
2019/12/25 13:04:11;;;;;;;4;1.3;;;;;;;7.17;80.62109;962.363;;;;
2019/12/25 13:06:36;;;;;;;1.6;1.4;;;;;;;7.13;80.45117;962.3535;;;;
2019/12/25 13:09:01;;;;;;;2.5;1.5;;;;;;;7.31;80.91309;962.3633;;;;
2019/12/25 13:11:26;;;;;;;3.3;1.5;;;;;;;7.37;79.76172;962.4102;;;;
2019/12/25 13:13:51;;;;;;;5.9;1.5;;;;;;;7.41;79.53809;962.45;;;;
2019/12/25 13:16:16;;;;;;;3.6;1.6;;;;;;;7.57;79.91504;962.4399;;;;
2019/12/25 13:18:41;;;;;;;3.8;1.5;;;;;;;7.84;78.60156;962.4048;;;;
2019/12/25 13:21:06;;;;;;;3.1;1.4;;;;;;;8.03;77.6582;962.4963;;;;
2019/12/25 13:23:31;;;;;;;3.3;1.7;;;;;;;8.33;77.21289;962.5115;;;;
2019/12/25 13:25:56;;;;;;;2.6;1.5;;;;;;;8.48;76.57422;962.4874;;;;
2019/12/25 13:28:22;;;;;;;2.5;1.6;;;;;;;8.64;75.83105;962.5739;;;;
2019/12/25 13:30:47;;;;;;;3.4;1.8;;;;;;;9.11;75.41211;962.6323;;;;
2019/12/25 13:33:12;;;;;;;2.9;1.4;;;;;;;9.17;74.78125;962.7662;;;;
2019/12/25 13:35:37;;;;;;;3.4;1.5;;;;;;;9.2;74.47168;962.8406;;;;
2019/12/25 13:38:02;;;;;;;3;1.5;;;;;;;9.17;73.69434;962.8369;;;;
2019/12/25 13:40:27;;;;;;;3.4;1.6;;;;;;;9.08;74.12207;962.8884;;;;
2019/12/25 13:42:52;;;;;;;3;1.7;;;;;;;9.07;74.37695;962.9483;;;;
2019/12/25 13:45:17;;;;;;;3.1;1.6;;;;;;;9.3;74.30078;962.9958;;;;
2019/12/25 13:47:42;;;;;;;3.2;1.7;;;;;;;8.99;74.77246;963.1265;;;;
2019/12/25 13:50:07;;;;;;;4.2;1.9;;;;;;;8.98;75.03906;963.1981;;;;
2019/12/25 13:52:32;;;;;;;3.7;1.8;;;;;;;8.7;75.91406;963.21;;;;
2019/12/25 13:54:57;;;;;;;3.9;1.6;;;;;;;8.59;76.89551;963.2849;;;;
2019/12/25 13:57:23;;;;;;;3;1.7;;;;;;;8.54;76.81934;963.3431;;;;
2019/12/25 13:59:48;;;;;;;3.2;1.8;;;;;;;8.43;77.54492;963.3981;;;;
2019/12/25 14:02:13;;;;;;;3.5;1.8;;;;;;;8.36;77.69434;963.4155;;;;
2019/12/25 14:04:38;;;;;;;3.3;1.8;;;;;;;8.31;77.94238;963.4383;;;;
2019/12/25 14:07:03;;;;;;;3.1;2;;;;;;;8.16;78.13672;963.4958;;;;
2019/12/25 14:09:28;;;;;;;3.4;1.9;;;;;;;8.25;77.9082;963.5094;;;;
2019/12/25 14:11:53;;;;;;;3.5;1.9;;;;;;;8.05;77.69629;963.5385;;;;
2019/12/25 14:14:18;;;;;;;3.7;1.8;;;;;;;7.94;77.89844;963.5466;;;;
2019/12/25 14:16:44;;;;;;;3.5;1.9;;;;;;;7.86;77.89648;963.6845;;;;
2019/12/25 14:19:09;;;;;;;3.9;1.8;;;;;;;7.85;77.58008;963.6069;;;;
2019/12/25 14:21:34;;;;;;;4.1;1.9;;;;;;;7.8;77.61914;963.6425;;;;
2019/12/25 14:23:59;;;;;;;2.9;1.7;;;;;;;7.75;78.08691;963.6906;;;;
2019/12/25 14:26:24;;;;;;;3.4;2;;;;;;;7.76;77.8418;963.6903;;;;
2019/12/25 14:28:49;;;;;;;3.2;1.8;;;;;;;7.75;78.02832;963.6824;;;;